Time;durP1;ratioP1;P1;durP2;ratioP2;P2;SDS_P1;SDS_P2;PMS_P1;PMS_P2;Temp;Humidity;BMP_temperature;BMP_pressure;BME280_temperature;BME280_humidity;BME280_pressure;Samples;Min_cycle;Max_cycle;Signal;HPM_P1;HPM_P2
2023/08/25 00:02:18;;;;;;;6.93;3.50;;;19.80;99.90;;;;;;5085982;28;20181;-58
2023/08/25 00:04:43;;;;;;;5.43;3.70;;;19.80;99.90;;;;;;5086093;28;20423;-59
2023/08/25 00:07:09;;;;;;;8.20;3.67;;;19.70;99.90;;;;;;5084746;28;20181;-59
2023/08/25 00:09:35;;;;;;;5.13;3.47;;;19.70;99.90;;;;;;5086919;28;20262;-59
2023/08/25 00:12:01;;;;;;;7.40;3.77;;;19.70;99.90;;;;;;5088037;28;20259;-59
2023/08/25 00:14:26;;;;;;;8.60;3.80;;;19.60;99.90;;;;;;5091031;28;20934;-59
2023/08/25 00:16:52;;;;;;;7.80;3.30;;;19.60;99.90;;;;;;5084798;28;20174;-59
2023/08/25 00:19:18;;;;;;;5.60;3.60;;;19.60;99.90;;;;;;5087356;28;20592;-58
2023/08/25 00:21:45;;;;;;;6.00;3.60;;;19.70;99.90;;;;;;5084909;28;20204;-58
2023/08/25 00:24:10;;;;;;;5.40;3.67;;;19.70;99.90;;;;;;5076785;28;20227;-59
2023/08/25 00:26:39;;;;;;;7.30;3.70;;;19.60;99.90;;;;;;5088386;28;20431;-58
2023/08/25 00:29:05;;;;;;;12.37;5.40;;;19.60;99.90;;;;;;5085030;28;20649;-57
2023/08/25 00:31:31;;;;;;;10.73;5.00;;;19.60;99.90;;;;;;5085570;28;20513;-59
2023/08/25 00:33:58;;;;;;;6.87;4.17;;;19.60;99.90;;;;;;5085719;28;20977;-59
2023/08/25 00:36:24;;;;;;;14.37;5.00;;;19.60;99.90;;;;;;5089636;28;20886;-59
2023/08/25 00:38:51;;;;;;;9.33;4.00;;;19.60;99.90;;;;;;5085825;28;20869;-59
2023/08/25 00:41:17;;;;;;;5.40;3.70;;;19.60;99.90;;;;;;5086858;28;20534;-59
2023/08/25 00:43:42;;;;;;;9.67;3.53;;;19.60;99.90;;;;;;5086419;28;20510;-59
2023/08/25 00:46:09;;;;;;;8.83;4.70;;;19.50;99.90;;;;;;5092832;28;20287;-58
2023/08/25 00:48:35;;;;;;;11.07;4.13;;;19.50;99.90;;;;;;5087140;28;20838;-58
2023/08/25 00:51:04;;;;;;;6.87;4.40;;;19.50;99.90;;;;;;5091231;28;20439;-59
2023/08/25 00:53:30;;;;;;;11.83;4.40;;;19.50;99.90;;;;;;5091126;28;20424;-58
2023/08/25 00:55:56;;;;;;;6.13;3.97;;;19.50;99.90;;;;;;5087796;28;20967;-59
2023/08/25 00:58:22;;;;;;;6.27;4.07;;;19.50;99.90;;;;;;5090602;28;20449;-59
2023/08/25 01:00:48;;;;;;;8.03;4.20;;;19.60;99.90;;;;;;5087274;28;20201;-58
2023/08/25 01:03:14;;;;;;;12.70;4.60;;;19.50;99.90;;;;;;5090421;28;20434;-59
2023/08/25 01:05:39;;;;;;;7.30;4.17;;;19.60;99.90;;;;;;5091568;28;20525;-58
2023/08/25 01:08:06;;;;;;;8.90;4.20;;;19.60;99.90;;;;;;5094799;28;20172;-59
2023/08/25 01:11:16;;;;;;;5.03;4.37;;;19.60;99.90;;;;;;5085152;28;20206;-59
2023/08/25 01:14:04;;;;;;;9.33;5.43;;;19.50;99.90;;;;;;5078487;28;20467;-59
2023/08/25 01:16:39;;;;;;;7.73;4.20;;;19.60;99.90;;;;;;5089610;28;20459;-58
2023/08/25 01:19:14;;;;;;;7.60;4.73;;;19.50;99.90;;;;;;5090832;28;20437;-58
2023/08/25 01:21:44;;;;;;;10.90;5.13;;;19.50;99.90;;;;;;5086403;28;20450;-59
2023/08/25 01:24:21;;;;;;;9.10;4.83;;;19.50;99.90;;;;;;5080081;28;20431;-60
2023/08/25 01:26:48;;;;;;;11.83;5.20;;;19.50;99.90;;;;;;5089127;28;20430;-59
2023/08/25 01:29:13;;;;;;;8.40;4.90;;;19.50;99.90;;;;;;5086329;28;20521;-59
2023/08/25 01:31:39;;;;;;;9.47;5.30;;;19.40;99.90;;;;;;5086602;28;20546;-57
2023/08/25 01:34:05;;;;;;;7.30;4.97;;;19.40;99.90;;;;;;5090302;28;20190;-60
2023/08/25 01:36:44;;;;;;;8.63;5.70;;;19.40;99.90;;;;;;5091068;28;20305;-59
2023/08/25 01:39:16;;;;;;;11.33;5.80;;;19.40;99.90;;;;;;5092797;28;20222;-60
2023/08/25 01:41:54;;;;;;;15.40;5.47;;;19.40;99.90;;;;;;5087739;28;20471;-59
2023/08/25 01:44:24;;;;;;;10.90;5.87;;;19.40;99.90;;;;;;5085759;28;20965;-59
2023/08/25 01:46:58;;;;;;;8.20;5.23;;;19.40;99.90;;;;;;5089678;28;20424;-58
2023/08/25 01:49:24;;;;;;;9.37;5.93;;;19.50;99.90;;;;;;5090631;28;20431;-58
2023/08/25 01:51:51;;;;;;;11.20;5.90;;;19.50;99.90;;;;;;5090976;28;20448;-58
2023/08/25 01:54:16;;;;;;;10.20;5.50;;;19.50;99.90;;;;;;5090943;28;20440;-59
2023/08/25 01:56:42;;;;;;;6.90;5.70;;;19.50;99.90;;;;;;5091576;28;20964;-57
2023/08/25 01:59:07;;;;;;;10.97;5.60;;;19.50;99.90;;;;;;5095444;28;20230;-58
2023/08/25 02:01:33;;;;;;;15.53;6.17;;;19.50;99.90;;;;;;5088845;28;20205;-59
2023/08/25 02:03:59;;;;;;;9.60;5.40;;;19.50;99.90;;;;;;5088283;28;20185;-59
2023/08/25 02:06:24;;;;;;;12.80;5.73;;;19.50;99.90;;;;;;5088915;28;20189;-59
2023/08/25 02:08:50;;;;;;;14.53;5.87;;;19.50;99.90;;;;;;5090996;28;20182;-58
2023/08/25 02:11:15;;;;;;;9.83;5.33;;;19.50;99.90;;;;;;5090678;28;20619;-55
2023/08/25 02:13:41;;;;;;;8.40;6.00;;;19.50;99.90;;;;;;5089143;28;20193;-59
2023/08/25 02:16:07;;;;;;;9.73;5.17;;;19.50;99.90;;;;;;5081629;28;20224;-58
2023/08/25 02:18:32;;;;;;;10.03;5.60;;;19.50;99.90;;;;;;5089863;28;20173;-57
2023/08/25 02:20:58;;;;;;;6.43;4.57;;;19.50;99.90;;;;;;5090243;28;20189;-59
2023/08/25 02:23:24;;;;;;;6.67;4.60;;;19.50;99.90;;;;;;5089076;28;20649;-59
2023/08/25 02:25:50;;;;;;;8.37;5.80;;;19.50;99.90;;;;;;5087875;28;20181;-59
2023/08/25 02:28:16;;;;;;;13.00;5.60;;;19.50;99.90;;;;;;5081798;28;20916;-59
2023/08/25 02:30:41;;;;;;;17.03;6.40;;;19.50;99.90;;;;;;5086278;28;20520;-59
2023/08/25 02:33:07;;;;;;;7.83;5.53;;;19.50;99.90;;;;;;5088551;28;20193;-59
2023/08/25 02:35:33;;;;;;;11.37;6.17;;;19.50;99.90;;;;;;5086148;28;20693;-59
2023/08/25 02:38:07;;;;;;;10.70;5.67;;;19.50;99.90;;;;;;5085839;28;20212;-59
2023/08/25 02:40:33;;;;;;;9.47;5.27;;;19.40;99.90;;;;;;5086886;28;20203;-59
2023/08/25 02:43:02;;;;;;;10.47;6.00;;;19.40;99.90;;;;;;5088695;28;20436;-58
2023/08/25 02:45:28;;;;;;;8.97;5.50;;;19.40;99.90;;;;;;5093545;28;20512;-58
2023/08/25 02:47:54;;;;;;;7.80;5.83;;;19.50;99.90;;;;;;5090023;28;20924;-59
2023/08/25 02:50:21;;;;;;;6.63;5.27;;;19.40;99.90;;;;;;5085350;28;20206;-58
2023/08/25 02:52:47;;;;;;;8.87;5.13;;;19.40;99.90;;;;;;5091941;28;20443;-58
2023/08/25 02:55:16;;;;;;;10.97;6.20;;;19.40;99.90;;;;;;5071665;28;20452;-58
2023/08/25 02:57:42;;;;;;;9.60;5.50;;;19.30;99.90;;;;;;5081098;28;20196;-59
2023/08/25 03:00:11;;;;;;;12.23;6.20;;;19.30;99.90;;;;;;5082854;28;20424;-58
2023/08/25 03:02:36;;;;;;;14.13;5.60;;;19.30;99.90;;;;;;5090435;28;20439;-59
2023/08/25 03:05:02;;;;;;;7.80;4.93;;;19.30;99.90;;;;;;5094296;28;20431;-58
2023/08/25 03:07:28;;;;;;;11.47;6.00;;;19.20;99.90;;;;;;5095641;28;20182;-59
2023/08/25 03:09:53;;;;;;;8.47;5.70;;;19.20;99.90;;;;;;5084622;28;21078;-58
2023/08/25 03:12:19;;;;;;;9.80;5.27;;;19.20;99.90;;;;;;5088286;28;20185;-58
2023/08/25 03:14:45;;;;;;;5.37;4.87;;;19.20;99.90;;;;;;5095074;28;20208;-58
2023/08/25 03:17:11;;;;;;;7.73;5.57;;;19.20;99.90;;;;;;5083043;28;20184;-58
2023/08/25 03:19:37;;;;;;;6.47;5.60;;;19.20;99.90;;;;;;5086093;28;20188;-58
2023/08/25 03:22:03;;;;;;;12.10;5.60;;;19.20;99.90;;;;;;5088854;28;20206;-58
2023/08/25 03:24:29;;;;;;;13.93;5.80;;;19.20;99.90;;;;;;5089602;28;20434;-58
2023/08/25 03:26:57;;;;;;;9.10;5.23;;;19.20;99.90;;;;;;5087483;28;20439;-58
2023/08/25 03:29:22;;;;;;;11.97;5.50;;;19.20;99.90;;;;;;5091877;28;20181;-59
2023/08/25 03:31:48;;;;;;;18.47;5.70;;;19.20;99.90;;;;;;5096046;28;20447;-58
2023/08/25 03:34:14;;;;;;;9.77;5.70;;;19.20;99.90;;;;;;5085945;28;20269;-58
2023/08/25 03:36:39;;;;;;;8.03;5.90;;;19.20;99.90;;;;;;5087316;28;20208;-58
2023/08/25 03:39:05;;;;;;;13.30;6.13;;;19.10;99.90;;;;;;5072028;28;20536;-58
2023/08/25 03:41:31;;;;;;;12.50;6.77;;;19.20;99.90;;;;;;5088285;28;20227;-58
2023/08/25 03:43:56;;;;;;;9.83;5.80;;;19.10;99.90;;;;;;5086759;28;20188;-59
2023/08/25 03:46:22;;;;;;;9.47;5.53;;;19.10;99.90;;;;;;5087320;28;20566;-58
2023/08/25 03:48:47;;;;;;;8.17;6.23;;;19.00;99.90;;;;;;5088204;28;20192;-58
2023/08/25 03:51:13;;;;;;;8.70;5.57;;;19.10;99.90;;;;;;5083187;28;20198;-59
2023/08/25 03:53:39;;;;;;;10.60;6.30;;;19.00;99.90;;;;;;5087836;28;20797;-58
2023/08/25 03:56:04;;;;;;;10.57;5.43;;;19.00;99.90;;;;;;5088747;28;20246;-58
2023/08/25 03:58:30;;;;;;;6.53;5.43;;;19.00;99.90;;;;;;5087290;28;20170;-57
2023/08/25 04:00:56;;;;;;;12.30;6.30;;;19.00;99.90;;;;;;5088447;28;20704;-59
2023/08/25 04:03:22;;;;;;;15.67;6.07;;;18.90;99.90;;;;;;5088384;28;20181;-58
2023/08/25 04:05:48;;;;;;;7.53;5.30;;;18.90;99.90;;;;;;5086396;28;20646;-58
2023/08/25 04:08:13;;;;;;;15.63;8.80;;;18.90;99.90;;;;;;5082704;28;20355;-59
2023/08/25 04:10:41;;;;;;;8.00;6.03;;;18.90;99.90;;;;;;5087958;28;20968;-58
2023/08/25 04:13:07;;;;;;;11.23;5.87;;;18.90;99.90;;;;;;5087861;28;20268;-58
2023/08/25 04:15:32;;;;;;;10.03;6.23;;;18.90;99.90;;;;;;5088038;28;20487;-58
2023/08/25 04:17:58;;;;;;;9.70;5.97;;;18.90;99.90;;;;;;5080777;28;20436;-59
2023/08/25 04:20:24;;;;;;;11.63;6.77;;;18.80;99.90;;;;;;5086757;28;20200;-57
2023/08/25 04:22:50;;;;;;;13.90;6.30;;;18.90;99.90;;;;;;5083629;28;20182;-58
2023/08/25 04:25:15;;;;;;;9.80;6.60;;;18.80;99.90;;;;;;5091210;28;20504;-57
2023/08/25 04:27:41;;;;;;;8.40;6.30;;;18.80;99.90;;;;;;5080789;28;20768;-58
2023/08/25 04:30:07;;;;;;;15.37;7.80;;;18.80;99.90;;;;;;5086988;28;20177;-59
2023/08/25 04:32:32;;;;;;;12.50;6.50;;;18.80;99.90;;;;;;5087667;28;20658;-58
2023/08/25 04:34:58;;;;;;;9.73;6.93;;;18.80;99.90;;;;;;5083306;28;20253;-58
2023/08/25 04:37:24;;;;;;;12.93;7.20;;;18.80;99.90;;;;;;5087213;28;20218;-59
2023/08/25 04:39:49;;;;;;;11.10;5.90;;;18.70;99.90;;;;;;5086019;28;20182;-59
2023/08/25 04:42:15;;;;;;;14.53;6.30;;;18.70;99.90;;;;;;5089001;28;20198;-59
2023/08/25 04:44:41;;;;;;;13.50;6.97;;;18.70;99.90;;;;;;5083357;28;20356;-58
2023/08/25 04:47:07;;;;;;;13.17;6.87;;;18.70;99.90;;;;;;5090337;28;20612;-59
2023/08/25 04:49:33;;;;;;;13.40;7.07;;;18.70;99.90;;;;;;5087020;28;20177;-59
2023/08/25 04:51:59;;;;;;;7.47;5.93;;;18.70;99.90;;;;;;5082624;28;20443;-59
2023/08/25 04:54:25;;;;;;;8.63;5.03;;;18.70;99.90;;;;;;5085368;28;20655;-59
2023/08/25 04:56:50;;;;;;;12.40;5.13;;;18.70;99.90;;;;;;5088608;28;20258;-59
2023/08/25 04:59:16;;;;;;;11.07;4.80;;;18.70;99.90;;;;;;5086170;28;20181;-59
2023/08/25 05:01:41;;;;;;;6.70;4.97;;;18.70;99.90;;;;;;5086497;28;20197;-59
2023/08/25 05:04:08;;;;;;;8.90;5.53;;;18.70;99.90;;;;;;5087763;28;20165;-58
2023/08/25 05:06:34;;;;;;;12.43;6.03;;;18.70;99.90;;;;;;5088077;28;20184;-58
2023/08/25 05:09:00;;;;;;;16.17;6.30;;;18.70;99.90;;;;;;5089498;28;20435;-59
2023/08/25 05:11:25;;;;;;;10.87;5.87;;;18.70;99.90;;;;;;5084070;28;20221;-58
2023/08/25 05:13:51;;;;;;;11.47;6.03;;;18.70;99.90;;;;;;5087604;28;20197;-58
2023/08/25 05:16:18;;;;;;;8.03;5.80;;;18.70;99.90;;;;;;5084750;28;20205;-59
2023/08/25 05:18:44;;;;;;;10.30;5.60;;;18.70;99.90;;;;;;5085483;28;20184;-59
2023/08/25 05:21:10;;;;;;;10.13;6.43;;;18.70;99.90;;;;;;5083534;28;20464;-59
2023/08/25 05:23:36;;;;;;;13.50;6.23;;;18.70;99.90;;;;;;5088015;28;20192;-59
2023/08/25 05:26:02;;;;;;;11.10;5.77;;;18.70;99.90;;;;;;5086622;28;20430;-58
2023/08/25 05:28:28;;;;;;;11.37;6.33;;;18.80;99.90;;;;;;5084535;28;20909;-59
2023/08/25 05:30:54;;;;;;;11.30;5.80;;;18.70;99.90;;;;;;5086233;28;20696;-59
2023/08/25 05:33:19;;;;;;;12.10;6.10;;;18.80;99.90;;;;;;5094380;28;20557;-59
2023/08/25 05:35:45;;;;;;;11.77;6.37;;;18.80;99.90;;;;;;5073326;28;20236;-60
2023/08/25 05:38:11;;;;;;;11.93;7.43;;;18.80;99.90;;;;;;5074228;28;20850;-59
2023/08/25 05:40:37;;;;;;;9.33;6.67;;;18.80;99.90;;;;;;5091484;28;20284;-59
2023/08/25 05:43:03;;;;;;;13.07;7.47;;;18.80;99.90;;;;;;5091480;28;20928;-59
2023/08/25 05:45:29;;;;;;;17.40;8.37;;;18.90;99.90;;;;;;5088682;28;20510;-59
2023/08/25 05:47:54;;;;;;;31.17;6.97;;;18.90;99.90;;;;;;5090008;28;20204;-59
2023/08/25 05:50:20;;;;;;;15.40;7.50;;;18.90;99.90;;;;;;5087854;28;20225;-60
2023/08/25 05:52:47;;;;;;;24.67;8.20;;;18.90;99.90;;;;;;5089891;28;20213;-59
2023/08/25 05:55:16;;;;;;;18.27;9.83;;;18.90;99.90;;;;;;5087545;28;20201;-60
2023/08/25 05:57:41;;;;;;;29.77;11.20;;;19.00;99.90;;;;;;5090406;28;20424;-56
2023/08/25 06:00:07;;;;;;;22.40;8.40;;;19.00;99.90;;;;;;5088916;28;20989;-59
2023/08/25 06:02:33;;;;;;;11.27;7.90;;;19.00;99.90;;;;;;5088735;28;20170;-59
2023/08/25 06:04:59;;;;;;;10.73;6.80;;;19.10;99.90;;;;;;5093513;28;20433;-59
2023/08/25 06:07:25;;;;;;;7.50;6.23;;;19.20;99.90;;;;;;5090024;28;20181;-60
2023/08/25 06:09:51;;;;;;;10.27;6.70;;;19.30;99.90;;;;;;5090509;28;20669;-59
2023/08/25 06:12:17;;;;;;;9.60;6.77;;;19.40;99.90;;;;;;5089426;28;20201;-60
2023/08/25 06:14:42;;;;;;;7.10;6.20;;;19.50;99.90;;;;;;5089162;28;20447;-59
2023/08/25 06:17:08;;;;;;;12.80;8.63;;;19.70;99.90;;;;;;5089379;28;20243;-59
2023/08/25 06:19:36;;;;;;;11.37;6.80;;;19.70;99.90;;;;;;5088482;28;20170;-59
2023/08/25 06:22:01;;;;;;;11.57;7.07;;;19.70;99.90;;;;;;5088325;28;20194;-59
2023/08/25 06:24:27;;;;;;;8.33;6.00;;;19.70;99.90;;;;;;5090575;28;20899;-59
2023/08/25 06:26:53;;;;;;;13.73;6.30;;;19.80;99.90;;;;;;5090940;28;20698;-59
2023/08/25 06:29:19;;;;;;;11.93;7.30;;;19.80;99.90;;;;;;5088564;28;20198;-60
2023/08/25 06:31:44;;;;;;;13.00;7.80;;;19.80;99.90;;;;;;5088720;28;20201;-58
2023/08/25 06:34:10;;;;;;;13.23;7.90;;;19.80;99.90;;;;;;5089225;28;20659;-59
2023/08/25 06:36:36;;;;;;;12.93;8.20;;;19.80;99.90;;;;;;5085898;28;20209;-59
2023/08/25 06:39:03;;;;;;;15.03;8.87;;;19.80;99.90;;;;;;5069978;28;20166;-59
2023/08/25 06:41:29;;;;;;;12.53;8.60;;;19.80;99.90;;;;;;5090728;28;20304;-59
2023/08/25 06:43:57;;;;;;;9.53;7.47;;;19.70;99.90;;;;;;5090217;28;20952;-59
2023/08/25 06:46:22;;;;;;;10.43;7.47;;;19.70;99.90;;;;;;5093667;28;20185;-59
2023/08/25 06:48:48;;;;;;;13.20;7.43;;;19.70;99.90;;;;;;5086906;28;20431;-59
2023/08/25 06:51:14;;;;;;;13.27;7.10;;;19.70;99.90;;;;;;5088928;28;20729;-59
2023/08/25 06:53:39;;;;;;;14.83;7.40;;;19.80;99.90;;;;;;5089561;28;20180;-59
2023/08/25 06:56:05;;;;;;;11.10;4.27;;;19.80;99.90;;;;;;5087862;28;20662;-59
2023/08/25 06:58:32;;;;;;;6.30;4.43;;;19.80;99.90;;;;;;5090159;28;20260;-58
2023/08/25 07:00:57;;;;;;;7.47;4.10;;;19.80;99.90;;;;;;5088688;28;20582;-59
2023/08/25 07:03:23;;;;;;;6.03;3.97;;;19.80;99.90;;;;;;5085061;28;20669;-59
2023/08/25 07:05:49;;;;;;;11.27;4.60;;;19.80;99.90;;;;;;5081588;28;20260;-58
2023/08/25 07:08:15;;;;;;;12.17;4.17;;;19.80;99.90;;;;;;5087658;28;20185;-58
2023/08/25 07:10:40;;;;;;;7.37;3.90;;;19.80;99.90;;;;;;5083471;28;20470;-59
2023/08/25 07:13:06;;;;;;;13.43;4.47;;;19.80;99.90;;;;;;5090643;28;20192;-58
2023/08/25 07:15:32;;;;;;;10.90;4.73;;;19.80;99.90;;;;;;5067593;28;20202;-59
2023/08/25 07:17:57;;;;;;;9.40;4.57;;;19.80;99.90;;;;;;5089219;28;20219;-59
2023/08/25 07:20:23;;;;;;;8.33;4.27;;;19.80;99.90;;;;;;5088842;28;20628;-58
2023/08/25 07:22:50;;;;;;;7.00;4.30;;;19.80;99.90;;;;;;5086372;28;20182;-59
2023/08/25 07:25:15;;;;;;;6.77;4.27;;;19.80;99.90;;;;;;5086103;28;20189;-58
2023/08/25 07:27:41;;;;;;;7.77;4.37;;;19.80;99.90;;;;;;5089873;28;20462;-58
2023/08/25 07:30:07;;;;;;;6.30;4.30;;;19.80;99.90;;;;;;5071634;28;20192;-58
2023/08/25 07:32:32;;;;;;;6.70;4.60;;;19.80;99.90;;;;;;5093066;28;20238;-59
2023/08/25 07:34:58;;;;;;;8.07;4.10;;;19.70;99.90;;;;;;5085792;28;20177;-59
2023/08/25 07:37:25;;;;;;;15.80;5.47;;;19.70;99.90;;;;;;5090448;28;20176;-58
2023/08/25 07:39:53;;;;;;;8.70;5.47;;;19.70;99.90;;;;;;5092134;28;20227;-59
2023/08/25 07:42:19;;;;;;;8.93;4.70;;;19.70;99.90;;;;;;5086159;28;20440;-59
2023/08/25 07:44:46;;;;;;;11.90;4.63;;;19.70;99.90;;;;;;5089450;28;20564;-58
2023/08/25 07:47:11;;;;;;;7.97;5.47;;;19.70;99.90;;;;;;5087108;28;20218;-58
2023/08/25 07:49:37;;;;;;;4.63;4.20;;;19.70;99.90;;;;;;5078423;28;20439;-60
2023/08/25 07:52:02;;;;;;;5.80;5.20;;;19.70;99.90;;;;;;5067000;28;20259;-59
2023/08/25 07:54:28;;;;;;;5.90;4.37;;;19.70;99.90;;;;;;5089520;28;20176;-59
2023/08/25 07:56:54;;;;;;;8.13;5.43;;;19.80;99.90;;;;;;5083007;28;20221;-60
2023/08/25 07:59:20;;;;;;;8.50;5.20;;;19.90;99.90;;;;;;5078379;28;20204;-60
2023/08/25 08:01:46;;;;;;;11.80;5.40;;;19.90;99.90;;;;;;5075596;28;20189;-61
2023/08/25 08:04:11;;;;;;;7.67;5.00;;;20.00;99.90;;;;;;5080977;28;20496;-60
2023/08/25 08:06:38;;;;;;;10.00;5.33;;;20.10;99.90;;;;;;5083932;28;20190;-60
2023/08/25 08:09:06;;;;;;;7.73;4.60;;;20.20;99.90;;;;;;5085331;28;20190;-60
2023/08/25 08:11:32;;;;;;;8.17;4.63;;;20.30;99.90;;;;;;5079691;28;20452;-60
2023/08/25 08:13:58;;;;;;;8.07;4.80;;;20.30;99.90;;;;;;5084333;28;20543;-61
2023/08/25 08:16:24;;;;;;;5.60;4.20;;;20.40;99.90;;;;;;5083238;28;20463;-60
2023/08/25 08:18:50;;;;;;;10.10;4.07;;;20.50;99.90;;;;;;5071141;28;20561;-61
2023/08/25 08:21:16;;;;;;;5.60;4.00;;;20.60;99.90;;;;;;5079156;28;20459;-61
2023/08/25 08:23:41;;;;;;;4.53;3.67;;;20.70;99.90;;;;;;5076674;28;20170;-60
2023/08/25 08:26:07;;;;;;;5.23;3.67;;;20.60;99.90;;;;;;5084750;28;20231;-60
2023/08/25 08:28:32;;;;;;;4.40;3.30;;;20.60;99.90;;;;;;5054831;28;20182;-60
2023/08/25 08:30:58;;;;;;;6.73;3.67;;;20.60;99.90;;;;;;5056038;28;20308;-60
2023/08/25 08:33:25;;;;;;;5.97;3.47;;;20.50;99.90;;;;;;5071580;28;20267;-60
2023/08/25 08:35:50;;;;;;;3.33;2.87;;;20.50;99.90;;;;;;5075980;28;20229;-61
2023/08/25 08:38:16;;;;;;;6.10;3.10;;;20.50;99.90;;;;;;5075087;28;20982;-60
2023/08/25 08:40:41;;;;;;;3.67;3.23;;;20.40;99.90;;;;;;5078362;28;20217;-58
2023/08/25 08:43:10;;;;;;;5.67;3.30;;;20.40;99.90;;;;;;5082950;28;20264;-58
2023/08/25 08:45:39;;;;;;;4.50;3.23;;;20.40;99.90;;;;;;5078133;28;20190;-60
2023/08/25 08:48:06;;;;;;;8.10;3.30;;;20.40;99.90;;;;;;5058835;28;20466;-60
2023/08/25 08:50:33;;;;;;;5.13;3.63;;;20.50;99.90;;;;;;5076853;28;20466;-60
2023/08/25 08:52:59;;;;;;;8.17;5.40;;;20.60;99.90;;;;;;5064128;28;22174;-60
2023/08/25 08:55:26;;;;;;;5.57;3.90;;;20.70;99.90;;;;;;5084319;28;20468;-60
2023/08/25 08:57:52;;;;;;;5.20;3.80;;;20.80;99.90;;;;;;5079306;28;20892;-60
2023/08/25 09:00:18;;;;;;;5.93;4.00;;;20.90;99.90;;;;;;5079525;28;20454;-60
2023/08/25 09:02:56;;;;;;;4.83;3.83;;;21.10;99.90;;;;;;5081167;28;20178;-60
2023/08/25 09:05:29;;;;;;;8.33;4.20;;;21.10;99.90;;;;;;5084161;28;20467;-60
2023/08/25 09:08:03;;;;;;;4.20;3.80;;;21.20;99.90;;;;;;5080824;28;20944;-61
2023/08/25 09:10:29;;;;;;;4.17;3.77;;;21.30;99.90;;;;;;5080855;28;20451;-61
2023/08/25 09:12:56;;;;;;;8.53;4.67;;;21.30;99.90;;;;;;5077700;28;20523;-61
2023/08/25 09:15:27;;;;;;;4.60;4.00;;;21.40;99.90;;;;;;5082713;28;20455;-58
2023/08/25 09:17:59;;;;;;;4.40;3.77;;;21.40;99.90;;;;;;5083772;28;20435;-60
2023/08/25 09:20:25;;;;;;;6.33;4.77;;;21.50;99.90;;;;;;5086496;28;20459;-61
2023/08/25 09:22:55;;;;;;;9.03;4.70;;;21.50;99.90;;;;;;5084282;28;20843;-62
2023/08/25 09:25:21;;;;;;;6.27;4.37;;;21.50;99.90;;;;;;5084404;28;20434;-60
2023/08/25 09:27:47;;;;;;;5.60;4.20;;;21.50;99.90;;;;;;5086024;28;23181;-61
2023/08/25 09:30:13;;;;;;;7.13;4.83;;;21.50;99.90;;;;;;5085338;28;20190;-60
2023/08/25 09:32:38;;;;;;;4.90;3.90;;;21.50;99.90;;;;;;5079324;28;20193;-60
2023/08/25 09:35:15;;;;;;;6.80;3.77;;;21.50;99.90;;;;;;5077385;28;20269;-60
2023/08/25 09:37:41;;;;;;;6.23;4.23;;;21.50;99.90;;;;;;5085263;28;20235;-61
2023/08/25 09:40:11;;;;;;;7.97;4.67;;;21.60;99.90;;;;;;5083032;28;20424;-60
2023/08/25 09:42:37;;;;;;;9.20;4.93;;;21.70;99.90;;;;;;5086795;28;20462;-61
2023/08/25 09:45:03;;;;;;;7.63;4.40;;;21.80;99.90;;;;;;5083865;28;20482;-59
2023/08/25 09:47:29;;;;;;;5.80;4.50;;;21.90;99.90;;;;;;5071758;28;20673;-59
2023/08/25 09:49:55;;;;;;;4.93;4.43;;;22.00;99.90;;;;;;5083632;28;20174;-59
2023/08/25 09:52:26;;;;;;;4.80;4.23;;;22.00;99.90;;;;;;5079476;28;20473;-59
2023/08/25 09:54:52;;;;;;;4.23;3.83;;;22.00;99.90;;;;;;5078616;28;20643;-59
2023/08/25 09:57:18;;;;;;;5.63;3.87;;;22.10;99.90;;;;;;5080621;28;20436;-60
2023/08/25 09:59:45;;;;;;;5.80;4.90;;;22.10;99.90;;;;;;5080409;28;20597;-59
2023/08/25 10:02:12;;;;;;;6.93;4.73;;;22.20;99.90;;;;;;5082885;28;21255;-59
2023/08/25 10:04:39;;;;;;;13.70;5.03;;;22.30;99.90;;;;;;5083413;28;21037;-59
2023/08/25 10:07:06;;;;;;;4.60;4.20;;;22.40;99.90;;;;;;5087481;28;20416;-59
2023/08/25 10:09:33;;;;;;;7.00;4.80;;;22.50;99.90;;;;;;5078336;28;20994;-61
2023/08/25 10:11:59;;;;;;;8.40;4.37;;;22.60;99.90;;;;;;5077758;28;20515;-59
2023/08/25 10:14:26;;;;;;;6.47;4.37;;;22.60;99.90;;;;;;5076813;28;20474;-59
2023/08/25 10:16:52;;;;;;;5.93;4.77;;;22.70;99.90;;;;;;5068915;28;20464;-62
2023/08/25 10:19:25;;;;;;;5.73;3.87;;;22.70;99.90;;;;;;5078281;28;20439;-58
2023/08/25 10:21:52;;;;;;;5.63;3.90;;;22.70;99.90;;;;;;5078706;28;20508;-58
2023/08/25 10:24:20;;;;;;;5.50;4.00;;;22.60;99.90;;;;;;5078574;28;20431;-58
2023/08/25 10:26:47;;;;;;;4.50;3.87;;;22.60;99.90;;;;;;5084428;28;21067;-59
2023/08/25 10:29:16;;;;;;;5.47;4.27;;;22.60;99.90;;;;;;5082192;28;20432;-59
2023/08/25 10:31:46;;;;;;;11.47;4.87;;;22.60;99.90;;;;;;5076264;28;20542;-58
2023/08/25 10:34:34;;;;;;;12.80;4.93;;;22.60;99.90;;;;;;5056050;28;20435;-60
2023/08/25 10:37:07;;;;;;;10.83;5.30;;;22.60;99.90;;;;;;5072113;28;20560;-58
2023/08/25 10:39:45;;;;;;;6.13;5.50;;;22.70;99.90;;;;;;5079404;28;20428;-57
2023/08/25 10:42:11;;;;;;;7.40;5.13;;;22.70;99.90;;;;;;5077139;28;20972;-60
2023/08/25 10:44:41;;;;;;;8.60;5.50;;;22.60;99.90;;;;;;5072919;28;20463;-57
2023/08/25 10:47:07;;;;;;;6.87;5.60;;;22.60;99.90;;;;;;5079283;28;20174;-58
2023/08/25 10:49:39;;;;;;;7.87;5.70;;;22.60;99.90;;;;;;5068313;28;20435;-59
2023/08/25 10:52:15;;;;;;;10.00;5.47;;;22.60;99.90;;;;;;5084012;28;20543;-58
2023/08/25 10:54:44;;;;;;;8.10;5.30;;;22.50;99.90;;;;;;5079458;28;21001;-59
2023/08/25 10:57:29;;;;;;;6.67;5.97;;;22.50;99.90;;;;;;5083054;28;20448;-59
2023/08/25 11:00:25;;;;;;;7.60;5.07;;;22.50;99.90;;;;;;5083838;28;21231;-59
2023/08/25 11:02:51;;;;;;;13.37;6.20;;;22.50;99.90;;;;;;5085069;28;20858;-58
2023/08/25 11:05:26;;;;;;;12.83;5.50;;;22.50;99.90;;;;;;5067625;28;20424;-59
2023/08/25 11:07:53;;;;;;;12.10;7.23;;;22.50;99.90;;;;;;5074018;28;20434;-58
2023/08/25 11:10:21;;;;;;;9.63;5.77;;;22.50;99.90;;;;;;5082720;28;20459;-59
2023/08/25 11:12:51;;;;;;;10.17;6.07;;;22.50;99.90;;;;;;5077466;28;20501;-59
2023/08/25 11:15:17;;;;;;;7.73;5.30;;;22.50;99.90;;;;;;5079241;28;20459;-58
2023/08/25 11:17:43;;;;;;;9.23;6.43;;;22.50;99.90;;;;;;5071543;28;20427;-59
2023/08/25 11:20:09;;;;;;;9.60;5.50;;;22.50;99.90;;;;;;5079186;28;20185;-59
2023/08/25 11:22:34;;;;;;;9.50;5.37;;;22.50;99.90;;;;;;5081040;28;20443;-60
2023/08/25 11:25:10;;;;;;;7.13;5.70;;;22.50;99.90;;;;;;5077194;28;20443;-60
2023/08/25 11:27:38;;;;;;;10.80;5.43;;;22.50;99.90;;;;;;5075408;28;20276;-60
2023/08/25 11:30:08;;;;;;;10.10;5.43;;;22.60;99.90;;;;;;5068234;28;20869;-59
2023/08/25 11:32:34;;;;;;;7.13;5.17;;;22.60;99.90;;;;;;5077601;28;20496;-60
2023/08/25 11:35:03;;;;;;;7.43;6.23;;;22.60;99.90;;;;;;5080569;28;20510;-61
2023/08/25 11:37:28;;;;;;;7.30;5.23;;;22.60;99.90;;;;;;5082370;28;20166;-59
2023/08/25 11:39:54;;;;;;;8.53;6.07;;;22.60;99.90;;;;;;5087680;28;20435;-60
2023/08/25 11:42:23;;;;;;;7.57;5.87;;;22.70;99.90;;;;;;5081411;28;20197;-61
2023/08/25 11:44:52;;;;;;;10.27;6.20;;;22.70;99.90;;;;;;5083050;28;20165;-60
2023/08/25 11:47:19;;;;;;;8.57;5.03;;;22.70;99.90;;;;;;5086865;28;20509;-60
2023/08/25 11:49:46;;;;;;;9.80;5.50;;;22.80;99.90;;;;;;5075681;28;20432;-60
2023/08/25 11:52:12;;;;;;;9.30;5.53;;;22.90;99.90;;;;;;5085266;28;20455;-59
2023/08/25 11:54:48;;;;;;;9.63;5.43;;;22.90;99.90;;;;;;5084734;28;20447;-58
2023/08/25 11:57:14;;;;;;;20.43;6.20;;;22.90;99.90;;;;;;5075092;28;20210;-61
2023/08/25 11:59:47;;;;;;;9.13;6.30;;;23.00;99.90;;;;;;5078535;28;20428;-59
2023/08/25 12:02:16;;;;;;;14.57;5.87;;;23.10;99.90;;;;;;5077360;28;20452;-56
2023/08/25 12:04:55;;;;;;;7.97;5.40;;;23.10;99.90;;;;;;5078340;28;20424;-56
2023/08/25 12:07:25;;;;;;;11.23;5.60;;;23.20;99.90;;;;;;5078670;28;20452;-58
2023/08/25 12:09:55;;;;;;;9.40;6.53;;;23.30;99.90;;;;;;5081500;28;20519;-55
2023/08/25 12:12:21;;;;;;;9.13;5.97;;;23.30;99.90;;;;;;5076330;28;20568;-59
2023/08/25 12:14:51;;;;;;;10.27;6.10;;;23.30;99.90;;;;;;5081132;28;20439;-59
2023/08/25 12:17:24;;;;;;;11.13;6.43;;;23.30;99.90;;;;;;5082155;28;20456;-59
2023/08/25 12:19:50;;;;;;;8.53;5.60;;;23.30;99.90;;;;;;5077775;28;20811;-61
2023/08/25 12:22:16;;;;;;;8.90;5.70;;;23.30;99.90;;;;;;5078060;28;20489;-61
2023/08/25 12:24:45;;;;;;;6.60;5.40;;;23.30;99.90;;;;;;5081397;28;20184;-62
2023/08/25 12:27:10;;;;;;;8.77;5.20;;;23.30;99.90;;;;;;5088390;28;20250;-61
2023/08/25 12:29:36;;;;;;;7.30;5.93;;;23.30;99.90;;;;;;5080861;28;20447;-61
2023/08/25 12:32:04;;;;;;;9.23;5.83;;;23.30;99.90;;;;;;5081933;28;20194;-61
2023/08/25 12:34:30;;;;;;;7.97;5.40;;;23.30;99.90;;;;;;5086424;28;20170;-63
2023/08/25 12:36:56;;;;;;;11.30;6.20;;;23.20;99.90;;;;;;5073795;28;20462;-60
2023/08/25 12:39:22;;;;;;;10.10;5.97;;;23.20;99.90;;;;;;5084281;28;20523;-60
2023/08/25 12:41:48;;;;;;;11.60;5.73;;;23.10;99.90;;;;;;5092557;28;20439;-61
2023/08/25 12:44:13;;;;;;;6.97;5.60;;;23.00;99.90;;;;;;5079554;28;20590;-61